createdAt,value
2017-09-17T00:00:04.749Z,66.70
2017-09-17T00:02:33.409Z,68.20
2017-09-17T00:05:01.949Z,67.60
2017-09-17T00:07:31.128Z,67.70
2017-09-17T00:10:00.965Z,67.80
2017-09-17T00:12:30.348Z,67.20
2017-09-17T00:14:59.709Z,69.00
2017-09-17T00:17:28.337Z,68.40
2017-09-17T00:19:57.724Z,68.10
2017-09-17T00:22:26.264Z,68.10
2017-09-17T00:24:54.593Z,68.00
2017-09-17T00:27:23.062Z,68.40
2017-09-17T00:29:51.462Z,68.90
2017-09-17T00:32:20.550Z,67.10
2017-09-17T00:34:49.774Z,68.60
2017-09-17T00:37:17.921Z,68.10
2017-09-17T00:39:47.141Z,67.20
2017-09-17T00:42:15.571Z,67.20
2017-09-17T00:44:43.771Z,67.60
2017-09-17T00:47:13.152Z,68.70
2017-09-17T00:49:41.451Z,68.70
2017-09-17T00:52:11.018Z,66.40
2017-09-17T00:54:39.409Z,66.40
2017-09-17T00:57:07.801Z,66.70
2017-09-17T00:59:37.093Z,68.10
2017-09-17T01:02:05.614Z,67.80
2017-09-17T01:04:34.169Z,65.70
2017-09-17T01:07:03.708Z,66.40
2017-09-17T01:09:32.209Z,66.20
2017-09-17T01:12:00.532Z,66.30
2017-09-17T01:14:29.847Z,66.50
2017-09-17T01:16:58.232Z,66.10
2017-09-17T01:19:26.920Z,66.10
2017-09-17T01:21:55.273Z,65.70
2017-09-17T01:24:23.658Z,66.50
2017-09-17T01:26:53.052Z,66.90
2017-09-17T01:29:21.907Z,67.70
2017-09-17T01:31:50.197Z,67.60
2017-09-17T01:34:18.410Z,67.70
2017-09-17T01:36:47.269Z,67.60
2017-09-17T01:39:15.631Z,68.30
2017-09-17T01:41:44.294Z,68.10
2017-09-17T01:44:12.814Z,67.40
2017-09-17T01:46:42.232Z,67.60
2017-09-17T01:49:11.574Z,67.30
2017-09-17T01:51:39.930Z,67.20
2017-09-17T01:54:08.112Z,67.50
2017-09-17T01:56:36.556Z,67.60
2017-09-17T01:59:05.021Z,67.50
2017-09-17T02:01:33.616Z,68.00
2017-09-17T02:04:02.912Z,67.60
2017-09-17T02:06:31.514Z,67.50
2017-09-17T02:09:00.599Z,67.80
2017-09-17T02:11:29.621Z,67.80
2017-09-17T02:13:58.092Z,67.80
2017-09-17T02:16:26.659Z,68.10
2017-09-17T02:18:55.956Z,68.20
2017-09-17T02:21:25.040Z,68.50
2017-09-17T02:23:53.535Z,68.50
2017-09-17T02:26:22.858Z,69.00
2017-09-17T02:28:51.192Z,69.00
2017-09-17T02:31:19.941Z,68.50
2017-09-17T02:33:48.449Z,68.30
2017-09-17T02:36:17.055Z,68.30
2017-09-17T02:38:47.045Z,68.90
2017-09-17T02:41:15.751Z,68.80
2017-09-17T02:43:44.058Z,68.60
2017-09-17T02:46:12.394Z,68.40
2017-09-17T02:48:40.645Z,68.90
2017-09-17T02:51:08.976Z,69.40
2017-09-17T02:53:38.145Z,69.30
2017-09-17T02:56:06.437Z,69.30
2017-09-17T02:58:35.537Z,69.30
2017-09-17T03:01:04.819Z,69.40
2017-09-17T03:03:33.375Z,69.40
2017-09-17T03:06:01.892Z,70.20
2017-09-17T03:08:30.891Z,69.10
2017-09-17T03:11:00.173Z,69.30
2017-09-17T03:13:28.485Z,69.30
2017-09-17T03:15:57.335Z,69.50
2017-09-17T03:18:26.056Z,69.60
2017-09-17T03:20:55.236Z,69.40
2017-09-17T03:23:24.377Z,69.80
2017-09-17T03:25:52.974Z,69.80
2017-09-17T03:28:21.600Z,69.30
2017-09-17T03:30:51.147Z,69.20
2017-09-17T03:33:19.708Z,69.20
2017-09-17T03:35:48.467Z,69.00
2017-09-17T03:38:16.694Z,69.10
2017-09-17T03:40:45.014Z,68.50
2017-09-17T03:43:13.395Z,68.90
2017-09-17T03:45:42.708Z,69.00
2017-09-17T03:48:11.775Z,69.00
2017-09-17T03:50:40.060Z,68.80
2017-09-17T03:53:08.293Z,69.80
2017-09-17T03:55:36.520Z,69.20
2017-09-17T03:58:05.707Z,69.00
2017-09-17T04:00:34.087Z,69.00
2017-09-17T04:03:02.549Z,68.70
2017-09-17T04:05:30.926Z,68.00
2017-09-17T04:07:59.326Z,68.70
2017-09-17T04:10:27.566Z,68.50
2017-09-17T04:12:56.073Z,68.40
2017-09-17T04:15:24.466Z,68.30
2017-09-17T04:17:53.586Z,68.40
2017-09-17T04:20:22.073Z,68.30
2017-09-17T04:22:50.371Z,69.00
2017-09-17T04:25:18.611Z,69.50
2017-09-17T04:27:47.051Z,69.90
2017-09-17T04:30:16.272Z,69.80
2017-09-17T04:32:45.236Z,69.70
2017-09-17T04:35:13.933Z,69.70
2017-09-17T04:37:42.301Z,69.90
2017-09-17T04:40:10.461Z,69.30
2017-09-17T04:42:39.005Z,69.40
2017-09-17T04:45:07.578Z,69.40
2017-09-17T04:47:36.817Z,69.70
2017-09-17T04:50:05.218Z,69.70
2017-09-17T04:52:33.718Z,69.60
2017-09-17T04:55:02.919Z,70.00
2017-09-17T04:57:32.303Z,69.60
2017-09-17T05:00:00.558Z,69.50
2017-09-17T05:02:29.052Z,69.70
2017-09-17T05:04:57.522Z,69.70
2017-09-17T05:07:26.015Z,70.20
2017-09-17T05:09:54.304Z,69.80
2017-09-17T05:12:22.675Z,70.00
2017-09-17T05:14:51.230Z,70.30
2017-09-17T05:17:19.628Z,71.00
2017-09-17T05:19:48.020Z,70.80
2017-09-17T05:22:17.371Z,71.00
2017-09-17T05:24:46.111Z,70.90
2017-09-17T05:27:15.317Z,70.80
2017-09-17T05:29:44.319Z,71.00
2017-09-17T05:32:12.665Z,71.00
2017-09-17T05:34:40.888Z,70.90
2017-09-17T05:37:09.088Z,71.80
2017-09-17T05:39:37.653Z,71.20
2017-09-17T05:42:06.251Z,71.60
2017-09-17T05:44:34.774Z,71.90
2017-09-17T05:47:04.173Z,72.00
2017-09-17T05:49:33.289Z,71.90
2017-09-17T05:52:01.788Z,71.90
2017-09-17T05:54:30.456Z,72.00
2017-09-17T05:56:59.117Z,71.70
2017-09-17T05:59:28.638Z,72.00
2017-09-17T06:01:57.208Z,72.00
2017-09-17T06:04:26.355Z,71.70
2017-09-17T06:06:54.796Z,71.60
2017-09-17T06:09:23.409Z,72.00
2017-09-17T06:11:52.058Z,71.80
2017-09-17T06:14:21.339Z,72.60
2017-09-17T06:16:50.495Z,72.20
2017-09-17T06:19:18.695Z,72.20
2017-09-17T06:21:47.913Z,72.30
2017-09-17T06:24:17.149Z,72.20
2017-09-17T06:26:45.559Z,72.20
2017-09-17T06:29:14.152Z,71.90
2017-09-17T06:31:42.851Z,72.10
2017-09-17T06:34:12.180Z,72.50
2017-09-17T06:36:40.730Z,73.10
2017-09-17T06:39:08.996Z,72.50
2017-09-17T06:41:37.496Z,72.20
2017-09-17T06:44:06.861Z,71.50
2017-09-17T06:46:35.028Z,72.20
2017-09-17T06:49:03.532Z,70.70
2017-09-17T06:51:31.773Z,69.80
2017-09-17T06:54:00.186Z,69.70
2017-09-17T06:56:28.244Z,70.00
2017-09-17T06:58:56.429Z,71.40
2017-09-17T07:01:24.703Z,71.30
2017-09-17T07:03:53.497Z,71.40
2017-09-17T07:06:21.675Z,71.40
2017-09-17T07:08:50.761Z,70.30
2017-09-17T07:11:19.038Z,70.30
2017-09-17T07:13:47.325Z,70.50
2017-09-17T07:16:16.679Z,71.50
2017-09-17T07:18:45.087Z,71.50
2017-09-17T07:21:13.335Z,70.90
2017-09-17T07:23:41.976Z,71.20
2017-09-17T07:26:11.276Z,70.40
2017-09-17T07:28:40.257Z,69.90
2017-09-17T07:31:09.732Z,69.70
2017-09-17T07:33:38.122Z,69.50
2017-09-17T07:36:06.203Z,69.40
2017-09-17T07:38:34.487Z,69.20
2017-09-17T07:41:03.956Z,67.70
2017-09-17T07:43:32.072Z,67.70
2017-09-17T07:46:01.572Z,67.60
2017-09-17T07:48:30.992Z,67.60
2017-09-17T07:50:59.661Z,67.60
2017-09-17T07:53:28.448Z,68.10
2017-09-17T07:55:57.733Z,69.10
2017-09-17T07:58:26.724Z,68.90
2017-09-17T08:00:55.814Z,68.60
2017-09-17T08:03:24.334Z,68.40
2017-09-17T08:05:52.821Z,68.20
2017-09-17T08:08:21.200Z,68.10
2017-09-17T08:10:49.216Z,67.50
2017-09-17T08:13:17.597Z,66.70
2017-09-17T08:15:46.758Z,67.10
2017-09-17T08:18:15.302Z,67.10
2017-09-17T08:20:43.700Z,67.20
2017-09-17T08:23:12.141Z,66.60
2017-09-17T08:25:40.702Z,66.30
2017-09-17T08:28:08.872Z,65.20
2017-09-17T08:30:37.476Z,65.20
2017-09-17T08:33:07.056Z,65.00
2017-09-17T08:35:35.676Z,65.00
2017-09-17T08:38:06.551Z,63.30
2017-09-17T08:40:34.954Z,63.20
2017-09-17T08:43:03.353Z,63.80
2017-09-17T08:45:31.613Z,63.30
2017-09-17T08:48:00.727Z,63.50
2017-09-17T08:50:29.934Z,62.90
2017-09-17T08:52:59.331Z,63.10
2017-09-17T08:55:27.632Z,63.10
2017-09-17T08:57:56.317Z,63.70
2017-09-17T09:00:24.665Z,64.00
2017-09-17T09:02:52.833Z,64.20
2017-09-17T09:05:21.473Z,64.70
2017-09-17T09:07:49.694Z,64.20
2017-09-17T09:10:18.996Z,64.50
2017-09-17T09:12:47.394Z,64.50
2017-09-17T09:15:16.676Z,63.80
2017-09-17T09:17:44.836Z,63.60
2017-09-17T09:20:13.335Z,63.70
2017-09-17T09:22:41.872Z,63.20
2017-09-17T09:25:10.120Z,63.30
2017-09-17T09:27:38.659Z,63.30
2017-09-17T09:30:07.219Z,63.40
2017-09-17T09:32:35.619Z,63.40
2017-09-17T09:35:03.998Z,63.10
2017-09-17T09:37:32.493Z,63.30
2017-09-17T09:40:01.708Z,62.50
2017-09-17T09:42:30.251Z,62.50
2017-09-17T09:44:59.570Z,62.90
2017-09-17T09:47:28.793Z,62.40
2017-09-17T09:49:57.146Z,62.40
2017-09-17T09:52:26.412Z,62.20
2017-09-17T09:54:55.029Z,62.10
2017-09-17T09:57:24.226Z,62.20
2017-09-17T09:59:53.465Z,61.30
2017-09-17T10:02:21.712Z,61.30
2017-09-17T10:04:50.812Z,61.10
2017-09-17T10:07:19.064Z,61.00
2017-09-17T10:09:48.270Z,61.70
2017-09-17T10:12:17.584Z,59.90
2017-09-17T10:14:45.932Z,59.80
2017-09-17T10:17:15.292Z,61.00
2017-09-17T10:19:44.044Z,60.90
2017-09-17T10:22:12.576Z,61.30
2017-09-17T10:24:41.069Z,60.70
2017-09-17T10:27:09.609Z,59.80
2017-09-17T10:29:37.914Z,59.60
2017-09-17T10:32:06.431Z,60.10
2017-09-17T10:34:35.614Z,59.10
2017-09-17T10:37:04.001Z,59.10
2017-09-17T10:39:32.263Z,59.30
2017-09-17T10:42:00.349Z,60.80
2017-09-17T10:44:28.614Z,59.60
2017-09-17T10:46:56.750Z,59.20
2017-09-17T10:49:24.868Z,59.70
2017-09-17T10:51:53.966Z,59.90
2017-09-17T10:54:23.406Z,58.70
2017-09-17T10:56:51.669Z,58.70
2017-09-17T10:59:20.031Z,59.40
2017-09-17T11:01:49.568Z,58.60
2017-09-17T11:04:18.315Z,58.60
2017-09-17T11:06:47.604Z,57.30
2017-09-17T11:09:15.987Z,57.30
2017-09-17T11:11:44.342Z,56.90
2017-09-17T11:14:12.769Z,56.70
2017-09-17T11:16:41.392Z,56.40
2017-09-17T11:19:09.951Z,55.20
2017-09-17T11:21:38.596Z,56.00
2017-09-17T11:24:07.916Z,55.00
2017-09-17T11:26:37.031Z,55.80
2017-09-17T11:29:05.218Z,55.80
2017-09-17T11:31:33.838Z,53.80
2017-09-17T11:34:02.301Z,54.50
2017-09-17T11:36:30.938Z,54.60
2017-09-17T11:38:59.448Z,54.00
2017-09-17T11:41:27.857Z,54.10
2017-09-17T11:43:56.349Z,53.20
2017-09-17T11:46:24.920Z,53.90
2017-09-17T11:48:53.469Z,52.40
2017-09-17T11:51:22.225Z,52.20
2017-09-17T11:53:50.778Z,52.00
2017-09-17T11:56:19.285Z,51.90
2017-09-17T11:58:48.256Z,51.50
2017-09-17T12:01:16.606Z,51.10
2017-09-17T12:03:45.008Z,51.60
2017-09-17T12:06:13.495Z,50.70
2017-09-17T12:08:42.077Z,50.50
2017-09-17T12:11:10.331Z,50.60
2017-09-17T12:13:38.800Z,50.80
2017-09-17T12:16:07.342Z,50.10
2017-09-17T12:18:35.877Z,49.00
2017-09-17T12:21:05.800Z,50.20
2017-09-17T12:23:33.980Z,50.20
2017-09-17T12:26:02.252Z,50.30
2017-09-17T12:28:30.630Z,50.60
2017-09-17T12:31:01.257Z,49.30
2017-09-17T12:33:29.834Z,49.30
2017-09-17T12:35:59.138Z,47.80
2017-09-17T12:38:27.647Z,47.80
2017-09-17T12:40:56.814Z,46.80
2017-09-17T12:43:25.116Z,46.60
2017-09-17T12:45:54.091Z,48.90
2017-09-17T12:48:23.308Z,49.00
2017-09-17T12:50:52.608Z,49.20
2017-09-17T12:53:21.192Z,49.20
2017-09-17T12:55:50.472Z,48.30
2017-09-17T12:58:19.802Z,47.90
2017-09-17T13:00:48.463Z,47.90
2017-09-17T13:03:17.556Z,47.40
2017-09-17T13:05:46.947Z,47.40
2017-09-17T13:08:15.545Z,47.10
2017-09-17T13:10:44.719Z,46.00
2017-09-17T13:13:13.018Z,45.90
2017-09-17T13:15:41.591Z,46.00
2017-09-17T13:18:10.894Z,44.70
2017-09-17T13:20:40.038Z,45.90
2017-09-17T13:23:08.433Z,46.50
2017-09-17T13:25:36.935Z,45.50
2017-09-17T13:28:05.444Z,46.20
2017-09-17T13:30:34.718Z,46.50
2017-09-17T13:33:03.174Z,46.50
2017-09-17T13:35:31.814Z,46.50
2017-09-17T13:38:00.405Z,46.20
2017-09-17T13:40:29.176Z,46.30
2017-09-17T13:42:58.340Z,46.70
2017-09-17T13:45:26.802Z,46.70
2017-09-17T13:47:55.211Z,46.60
2017-09-17T13:50:23.921Z,46.60
2017-09-17T13:52:52.509Z,46.30
2017-09-17T13:55:20.813Z,46.00
2017-09-17T13:57:49.354Z,46.40
2017-09-17T14:00:21.007Z,46.10
2017-09-17T14:02:51.097Z,46.20
2017-09-17T14:05:25.010Z,46.30
2017-09-17T14:07:53.729Z,46.10
2017-09-17T14:13:33.564Z,46.60
2017-09-17T14:16:03.547Z,47.50
2017-09-17T14:18:31.987Z,47.50
2017-09-17T14:21:01.336Z,47.60
2017-09-17T14:23:29.735Z,47.60
2017-09-17T14:25:58.282Z,47.90
2017-09-17T14:28:27.009Z,47.00
2017-09-17T14:30:55.193Z,47.00
2017-09-17T14:33:24.635Z,46.70
2017-09-17T14:35:53.072Z,46.70
2017-09-17T14:38:21.972Z,45.90
2017-09-17T14:40:51.192Z,46.10
2017-09-17T14:43:19.519Z,46.10
2017-09-17T14:45:48.026Z,46.20
2017-09-17T14:48:17.148Z,46.50
2017-09-17T14:50:45.786Z,46.40
2017-09-17T14:53:14.412Z,46.80
2017-09-17T14:55:43.269Z,47.30
2017-09-17T14:58:12.673Z,46.60
2017-09-17T15:00:42.218Z,46.50
2017-09-17T15:03:10.877Z,46.50
2017-09-17T15:05:40.169Z,47.30
2017-09-17T15:08:09.629Z,47.50
2017-09-17T15:10:38.086Z,47.40
2017-09-17T15:13:06.614Z,46.90
2017-09-17T15:15:36.051Z,46.40
2017-09-17T15:18:04.428Z,46.40
2017-09-17T15:20:32.674Z,46.40
2017-09-17T15:23:01.874Z,45.90
2017-09-17T15:25:30.854Z,46.10
2017-09-17T15:27:59.371Z,45.40
2017-09-17T15:30:27.928Z,44.90
2017-09-17T15:32:56.020Z,45.10
2017-09-17T15:35:24.476Z,44.70
2017-09-17T15:37:52.965Z,44.90
2017-09-17T15:40:22.604Z,44.70
2017-09-17T15:42:51.165Z,44.60
2017-09-17T15:45:20.357Z,44.60
2017-09-17T15:47:49.750Z,44.80
2017-09-17T15:50:19.012Z,43.60
2017-09-17T15:52:47.592Z,43.50
2017-09-17T15:55:16.020Z,43.10
2017-09-17T15:57:45.411Z,44.20
2017-09-17T16:00:14.728Z,49.10
2017-09-17T16:02:43.996Z,51.70
2017-09-17T16:05:12.575Z,51.70
2017-09-17T16:07:41.306Z,52.20
2017-09-17T16:10:09.947Z,52.50
2017-09-17T16:12:38.460Z,53.10
2017-09-17T16:15:07.798Z,54.00
2017-09-17T16:17:37.637Z,54.00
2017-09-17T16:20:06.239Z,53.90
2017-09-17T16:22:35.421Z,54.60
2017-09-17T16:25:03.857Z,54.50
2017-09-17T16:27:32.399Z,54.70
2017-09-17T16:30:01.682Z,55.60
2017-09-17T16:32:29.933Z,55.50
2017-09-17T16:34:58.702Z,55.10
2017-09-17T16:37:27.143Z,55.10
2017-09-17T16:39:56.568Z,54.30
2017-09-17T16:42:25.018Z,54.20
2017-09-17T16:44:54.488Z,51.80
2017-09-17T16:47:23.053Z,51.80
2017-09-17T16:49:51.494Z,52.80
2017-09-17T16:52:20.779Z,53.80
2017-09-17T16:54:49.357Z,53.80
2017-09-17T16:57:17.977Z,55.00
2017-09-17T16:59:46.620Z,55.70
2017-09-17T17:02:15.034Z,55.10
2017-09-17T17:04:44.368Z,55.80
2017-09-17T17:07:12.791Z,55.80
2017-09-17T17:09:42.164Z,57.10
2017-09-17T17:12:10.653Z,57.10
2017-09-17T17:14:39.461Z,58.10
2017-09-17T17:17:08.647Z,57.20
2017-09-17T17:19:37.427Z,57.20
2017-09-17T17:22:06.031Z,56.30
2017-09-17T17:24:35.542Z,57.60
2017-09-17T17:27:04.017Z,57.60
2017-09-17T17:29:33.790Z,59.80
2017-09-17T17:32:02.404Z,59.80
2017-09-17T17:34:32.034Z,60.10
2017-09-17T17:37:00.456Z,59.70
2017-09-17T17:39:28.989Z,59.60
2017-09-17T17:41:57.595Z,60.10
2017-09-17T17:44:26.218Z,59.40
2017-09-17T17:46:54.797Z,59.20
2017-09-17T17:49:23.248Z,59.70
2017-09-17T17:51:51.933Z,59.10
2017-09-17T17:54:20.693Z,59.00
2017-09-17T17:56:49.359Z,59.30
2017-09-17T17:59:18.852Z,59.40
2017-09-17T18:01:48.187Z,59.80
2017-09-17T18:04:16.968Z,59.70
2017-09-17T18:06:46.079Z,59.80
2017-09-17T18:09:14.771Z,59.80
2017-09-17T18:11:43.546Z,60.50
2017-09-17T18:14:12.063Z,61.00
2017-09-17T18:16:40.683Z,61.00
2017-09-17T18:19:09.984Z,61.10
2017-09-17T18:21:38.272Z,61.00
2017-09-17T18:24:07.470Z,60.30
2017-09-17T18:26:36.710Z,60.40
2017-09-17T18:29:05.229Z,60.40
2017-09-17T18:31:33.769Z,60.50
2017-09-17T18:34:02.409Z,60.40
2017-09-17T18:36:30.864Z,60.50
2017-09-17T18:38:59.101Z,59.00
2017-09-17T18:41:27.440Z,59.10
2017-09-17T18:43:56.471Z,59.30
2017-09-17T18:46:25.131Z,59.30
2017-09-17T18:48:53.791Z,58.70
2017-09-17T18:51:22.630Z,58.80
2017-09-17T18:53:51.271Z,57.60
2017-09-17T18:56:20.691Z,59.00
2017-09-17T18:58:49.214Z,59.00
2017-09-17T19:01:17.951Z,57.90
2017-09-17T19:03:47.471Z,57.90
2017-09-17T19:06:16.420Z,57.80
2017-09-17T19:08:46.575Z,58.50
2017-09-17T19:11:15.273Z,58.50
2017-09-17T19:13:44.034Z,58.60
2017-09-17T19:16:13.493Z,58.10
2017-09-17T19:18:42.117Z,58.00
2017-09-17T19:21:11.528Z,59.20
2017-09-17T19:23:40.927Z,60.60
2017-09-17T19:26:10.309Z,60.70
2017-09-17T19:28:38.934Z,60.70
2017-09-17T19:31:07.608Z,60.40
2017-09-17T19:33:37.234Z,59.70
2017-09-17T19:36:05.807Z,59.70
2017-09-17T19:38:34.537Z,59.80
2017-09-17T19:41:03.064Z,59.60
2017-09-17T19:43:31.736Z,59.70
2017-09-17T19:46:01.500Z,59.90
2017-09-17T19:48:30.041Z,59.90
2017-09-17T19:50:58.601Z,59.50
2017-09-17T19:53:27.193Z,59.10
2017-09-17T19:55:56.593Z,58.60
2017-09-17T19:58:26.133Z,59.10
2017-09-17T20:00:54.635Z,59.60
2017-09-17T20:03:22.792Z,59.50
2017-09-17T20:05:51.225Z,59.10
2017-09-17T20:08:20.566Z,59.60
2017-09-17T20:10:48.746Z,59.00
2017-09-17T20:13:17.277Z,58.90
2017-09-17T20:15:46.037Z,59.80
2017-09-17T20:18:14.566Z,60.20
2017-09-17T20:20:43.060Z,60.80
2017-09-17T20:23:11.420Z,61.20
2017-09-17T20:25:40.797Z,61.10
2017-09-17T20:28:09.723Z,61.00
2017-09-17T20:30:38.489Z,61.30
2017-09-17T20:33:07.760Z,61.90
2017-09-17T20:35:36.149Z,61.90
2017-09-17T20:38:06.345Z,62.70
2017-09-17T20:40:34.708Z,62.70
2017-09-17T20:43:02.748Z,62.70
2017-09-17T20:45:31.440Z,62.00
2017-09-17T20:47:59.624Z,62.90
2017-09-17T20:50:28.175Z,62.50
2017-09-17T20:52:57.468Z,64.50
2017-09-17T20:55:26.099Z,64.50
2017-09-17T20:57:54.433Z,64.30
2017-09-17T21:00:23.963Z,63.10
2017-09-17T21:02:52.404Z,63.10
2017-09-17T21:05:20.976Z,63.50
2017-09-17T21:07:49.724Z,64.40
2017-09-17T21:10:18.486Z,64.00
2017-09-17T21:12:46.947Z,63.20
2017-09-17T21:15:16.267Z,63.90
2017-09-17T21:17:45.536Z,63.30
2017-09-17T21:20:14.672Z,64.60
2017-09-17T21:22:43.427Z,64.60
2017-09-17T21:25:12.800Z,66.40
2017-09-17T21:27:41.462Z,66.40
2017-09-17T21:30:10.240Z,66.90
2017-09-17T21:32:38.671Z,65.80
2017-09-17T21:35:07.272Z,66.30
2017-09-17T21:37:36.146Z,67.00
2017-09-17T21:40:04.556Z,66.90
2017-09-17T21:42:33.055Z,66.90
2017-09-17T21:45:01.708Z,67.20
2017-09-17T21:47:31.025Z,67.60
2017-09-17T21:49:59.481Z,67.60
2017-09-17T21:52:28.774Z,67.00
2017-09-17T21:54:58.169Z,67.20
2017-09-17T21:57:26.672Z,67.10
2017-09-17T21:59:56.253Z,67.00
2017-09-17T22:02:24.744Z,67.00
2017-09-17T22:04:53.432Z,66.60
2017-09-17T22:07:22.963Z,67.10
2017-09-17T22:09:51.303Z,67.10
2017-09-17T22:12:20.564Z,67.20
2017-09-17T22:14:49.324Z,67.20
2017-09-17T22:17:17.806Z,66.90
2017-09-17T22:19:46.058Z,67.10
2017-09-17T22:22:15.588Z,67.70
2017-09-17T22:24:44.048Z,67.50
2017-09-17T22:27:12.563Z,64.50
2017-09-17T22:29:41.119Z,65.30
2017-09-17T22:32:09.728Z,66.70
2017-09-17T22:34:38.149Z,66.70
2017-09-17T22:37:06.771Z,66.90
2017-09-17T22:39:35.239Z,67.20
2017-09-17T22:42:03.797Z,67.00
2017-09-17T22:44:32.390Z,66.10
2017-09-17T22:47:00.649Z,66.30
2017-09-17T22:49:30.546Z,66.80
2017-09-17T22:51:59.059Z,66.80
2017-09-17T22:54:27.459Z,67.10
2017-09-17T22:56:55.817Z,66.70
2017-09-17T22:59:25.211Z,68.00
2017-09-17T23:01:54.774Z,68.40
2017-09-17T23:04:23.414Z,68.40
2017-09-17T23:06:52.711Z,67.90
2017-09-17T23:09:22.012Z,68.00
2017-09-17T23:11:51.308Z,68.40
2017-09-17T23:14:20.529Z,68.50
2017-09-17T23:16:48.972Z,68.40
2017-09-17T23:19:17.366Z,68.50
2017-09-17T23:21:46.552Z,69.10
2017-09-17T23:24:15.812Z,70.10
2017-09-17T23:26:44.856Z,70.00
2017-09-17T23:29:14.039Z,69.30
2017-09-17T23:31:42.569Z,69.30
2017-09-17T23:34:11.206Z,69.50
2017-09-17T23:36:40.014Z,69.90
2017-09-17T23:39:08.171Z,69.80
2017-09-17T23:41:36.759Z,70.20
2017-09-17T23:44:06.158Z,69.80
2017-09-17T23:46:34.637Z,69.70
2017-09-17T23:49:03.615Z,69.70
2017-09-17T23:51:33.749Z,69.40
2017-09-17T23:54:03.088Z,68.90
2017-09-17T23:56:31.534Z,68.90
2017-09-17T23:59:00.635Z,68.90
